Time;durP1;ratioP1;P1;durP2;ratioP2;P2;SDS_P1;SDS_P2;PMS_P1;PMS_P2;Temp;Humidity;BMP_temperature;BMP_pressure;BME280_temperature;BME280_humidity;BME280_pressure;Samples;Min_cycle;Max_cycle;Signal;HPM_P1;HPM_P2
2022/09/11 00:00:56;;;;;;;;;;;21.80;67.90;;;;;;4995265;28;1081;-68
2022/09/11 00:03:23;;;;;;;;;;;21.80;68.00;;;;;;4993963;28;1209;-69
2022/09/11 00:05:48;;;;;;;;;;;21.80;68.00;;;;;;4993868;28;1228;-68
2022/09/11 00:08:15;;;;;;;;;;;21.80;68.00;;;;;;4992127;28;1840;-66
2022/09/11 00:10:41;;;;;;;;;;;21.80;68.00;;;;;;4995160;28;989;-68
2022/09/11 00:13:11;;;;;;;;;;;21.80;68.00;;;;;;4993336;28;1902;-68
2022/09/11 00:15:42;;;;;;;;;;;21.80;68.00;;;;;;4977281;28;1190;-68
2022/09/11 00:18:08;;;;;;;;;;;21.80;68.00;;;;;;4961548;28;1333;-68
2022/09/11 00:20:34;;;;;;;;;;;21.80;68.00;;;;;;4977456;28;1192;-69
2022/09/11 00:23:03;;;;;;;;;;;21.80;68.00;;;;;;4977387;28;1287;-68
2022/09/11 00:25:39;;;;;;;;;;;21.80;68.00;;;;;;4977583;28;876;-68
2022/09/11 00:28:04;;;;;;;;;;;21.80;68.00;;;;;;4994643;28;1252;-68
2022/09/11 00:30:30;;;;;;;;;;;21.80;68.00;;;;;;4976827;28;1121;-68
2022/09/11 00:32:55;;;;;;;;;;;21.80;68.00;;;;;;4976749;28;1899;-69
2022/09/11 00:35:21;;;;;;;;;;;21.80;68.00;;;;;;4993074;28;1315;-69
2022/09/11 00:37:47;;;;;;;;;;;21.80;68.00;;;;;;4994898;28;852;-68
2022/09/11 00:40:14;;;;;;;;;;;21.80;68.00;;;;;;4994537;28;832;-69
2022/09/11 00:42:40;;;;;;;;;;;21.80;68.00;;;;;;4993442;28;788;-68
2022/09/11 00:45:06;;;;;;;;;;;21.80;68.00;;;;;;4994262;28;1186;-69
2022/09/11 00:47:31;;;;;;;;;;;21.80;68.10;;;;;;4992884;28;828;-69
2022/09/11 00:49:59;;;;;;;;;;;21.80;68.00;;;;;;4993066;28;808;-68
2022/09/11 00:52:26;;;;;;;;;;;21.80;68.00;;;;;;4991946;28;1943;-68
2022/09/11 00:55:13;;;;;;;;;;;21.80;68.00;;;;;;4977045;28;1182;-68
2022/09/11 00:57:49;;;;;;;;;;;21.80;68.10;;;;;;4975927;28;2190;-68
2022/09/11 01:00:14;;;;;;;;;;;21.80;68.10;;;;;;4992431;28;1132;-68
2022/09/11 01:02:41;;;;;;;;;;;21.80;68.10;;;;;;4992762;28;1243;-69
2022/09/11 01:05:07;;;;;;;;;;;21.80;68.10;;;;;;4960110;28;1237;-69
2022/09/11 01:07:32;;;;;;;;;;;21.80;68.10;;;;;;4976681;28;1082;-67
2022/09/11 01:09:58;;;;;;;;;;;21.80;68.10;;;;;;4993730;28;891;-68
2022/09/11 01:12:28;;;;;;;;;;;21.80;68.10;;;;;;4976525;28;2333;-69
2022/09/11 01:14:55;;;;;;;;;;;21.80;68.10;;;;;;4976252;28;1253;-68
2022/09/11 01:17:21;;;;;;;;;;;21.80;68.10;;;;;;4992474;28;1232;-68
2022/09/11 01:19:49;;;;;;;;;;;21.80;68.10;;;;;;4992330;28;1233;-68
2022/09/11 01:22:17;;;;;;;;;;;21.80;68.10;;;;;;4992708;28;2061;-67
2022/09/11 01:24:55;;;;;;;;;;;21.80;68.10;;;;;;4991111;28;1269;-67
2022/09/11 01:27:36;;;;;;;;;;;21.80;68.10;;;;;;4986238;28;1277;-67
2022/09/11 01:30:06;;;;;;;;;;;21.80;68.10;;;;;;4973730;28;865;-67
2022/09/11 01:32:36;;;;;;;;;;;21.80;68.10;;;;;;4987341;28;1899;-67
2022/09/11 01:35:23;;;;;;;;;;;21.80;68.10;;;;;;4975751;28;1209;-67
2022/09/11 01:38:03;;;;;;;;;;;21.80;68.20;;;;;;4993972;28;1147;-68
2022/09/11 01:40:36;;;;;;;;;;;21.80;68.10;;;;;;4991660;28;1161;-68
2022/09/11 01:43:05;;;;;;;;;;;21.80;68.20;;;;;;4992919;28;1205;-68
2022/09/11 01:45:32;;;;;;;;;;;21.80;68.20;;;;;;4991804;28;1339;-68
2022/09/11 01:47:58;;;;;;;;;;;21.80;68.20;;;;;;4992092;28;1212;-68
2022/09/11 01:50:23;;;;;;;;;;;21.80;68.10;;;;;;4991605;28;1180;-67
2022/09/11 01:52:54;;;;;;;;;;;21.80;68.20;;;;;;4975367;28;1914;-68
2022/09/11 01:55:20;;;;;;;;;;;21.80;68.20;;;;;;4991791;28;1006;-67
2022/09/11 01:58:09;;;;;;;;;;;21.80;68.20;;;;;;4991921;28;849;-67
2022/09/11 02:00:35;;;;;;;;;;;21.80;68.20;;;;;;4972174;28;1205;-67
2022/09/11 02:03:21;;;;;;;;;;;21.80;68.20;;;;;;4995797;28;1343;-68
2022/09/11 02:05:47;;;;;;;;;;;21.80;68.20;;;;;;4995794;28;792;-67
2022/09/11 02:08:15;;;;;;;;;;;21.80;68.20;;;;;;4995897;28;1071;-67
2022/09/11 02:10:45;;;;;;;;;;;21.80;68.20;;;;;;4995989;28;1277;-67
2022/09/11 02:13:11;;;;;;;;;;;21.80;68.20;;;;;;4995528;28;1964;-67
2022/09/11 02:15:38;;;;;;;;;;;21.80;68.20;;;;;;4995507;28;1241;-68
2022/09/11 02:18:08;;;;;;;;;;;21.80;68.20;;;;;;4993974;28;1321;-68
2022/09/11 02:20:35;;;;;;;;;;;21.80;68.20;;;;;;4992730;28;1927;-68
2022/09/11 02:23:00;;;;;;;;;;;21.80;68.20;;;;;;4995257;28;1358;-67
2022/09/11 02:25:26;;;;;;;;;;;21.80;68.20;;;;;;4995345;28;1238;-68
2022/09/11 02:27:51;;;;;;;;;;;21.80;68.20;;;;;;4995259;28;1213;-67
2022/09/11 02:30:17;;;;;;;;;;;21.80;68.20;;;;;;4978943;28;1193;-67
2022/09/11 02:32:42;;;;;;;;;;;21.80;68.20;;;;;;4993514;28;1894;-67
2022/09/11 02:35:08;;;;;;;;;;;21.80;68.30;;;;;;4994945;28;1411;-67
2022/09/11 02:37:44;;;;;;;;;;;21.80;68.30;;;;;;4995225;28;1229;-67
2022/09/11 02:40:28;;;;;;;;;;;21.80;68.20;;;;;;4994904;28;1399;-68
2022/09/11 02:43:09;;;;;;;;;;;21.80;69.00;;;;;;4990287;28;1379;-67
2022/09/11 02:45:43;;;;;;;;;;;21.80;68.30;;;;;;4987221;28;1385;-68
2022/09/11 02:48:14;;;;;;;;;;;21.80;68.30;;;;;;4991586;28;1307;-68
2022/09/11 02:50:44;;;;;;;;;;;21.80;68.30;;;;;;4995027;28;1879;-68
2022/09/11 02:53:13;;;;;;;;;;;21.80;68.30;;;;;;4993336;28;1973;-67
2022/09/11 02:55:59;;;;;;;;;;;21.80;68.30;;;;;;4993779;28;1292;-67
2022/09/11 02:58:45;;;;;;;;;;;21.80;68.30;;;;;;4995526;28;1246;-67
2022/09/11 03:01:10;;;;;;;;;;;21.80;68.30;;;;;;4994876;28;1305;-67
2022/09/11 03:03:39;;;;;;;;;;;21.80;68.30;;;;;;4994467;28;1363;-67
2022/09/11 03:06:05;;;;;;;;;;;21.80;68.40;;;;;;4994370;28;1245;-66
2022/09/11 03:08:31;;;;;;;;;;;21.80;68.30;;;;;;4959265;28;1154;-67
2022/09/11 03:10:56;;;;;;;;;;;21.80;68.30;;;;;;4976400;28;1898;-67
2022/09/11 03:13:22;;;;;;;;;;;21.80;68.40;;;;;;4975187;28;1210;-67
2022/09/11 03:15:47;;;;;;;;;;;21.80;68.40;;;;;;4986465;28;1145;-67
2022/09/11 03:18:14;;;;;;;;;;;21.80;69.10;;;;;;4995902;28;887;-66
2022/09/11 03:20:43;;;;;;;;;;;21.80;68.30;;;;;;4996034;28;910;-68
2022/09/11 03:23:09;;;;;;;;;;;21.80;68.40;;;;;;4996048;28;1296;-67
2022/09/11 03:25:34;;;;;;;;;;;21.80;68.40;;;;;;4994688;28;1353;-67
2022/09/11 03:28:00;;;;;;;;;;;21.80;68.40;;;;;;4995820;28;1177;-68
2022/09/11 03:30:25;;;;;;;;;;;21.80;68.40;;;;;;4995675;28;851;-67
2022/09/11 03:32:52;;;;;;;;;;;21.80;68.40;;;;;;4995355;28;1902;-67
2022/09/11 03:35:17;;;;;;;;;;;21.80;68.40;;;;;;5007184;22;3473;-67
2022/09/11 03:37:43;;;;;;;;;;;21.80;68.40;;;;;;4994325;28;930;-66
2022/09/11 03:40:08;;;;;;;;;;;21.80;68.40;;;;;;4994703;28;898;-66
2022/09/11 03:42:34;;;;;;;;;;;21.80;68.40;;;;;;4995298;28;881;-65
2022/09/11 03:44:59;;;;;;;;;;;21.80;68.40;;;;;;4995163;28;1204;-66
2022/09/11 03:47:25;;;;;;;;;;;21.80;68.40;;;;;;4995631;28;839;-66
2022/09/11 03:49:51;;;;;;;;;;;21.80;68.40;;;;;;4994671;28;819;-66
2022/09/11 03:52:16;;;;;;;;;;;21.80;68.40;;;;;;4994796;28;1918;-66
2022/09/11 03:54:42;;;;;;;;;;;21.80;68.40;;;;;;4993693;28;1605;-66
2022/09/11 03:57:08;;;;;;;;;;;21.80;68.50;;;;;;4995045;28;1041;-66
2022/09/11 03:59:33;;;;;;;;;;;21.80;68.40;;;;;;4994441;28;903;-66
2022/09/11 04:01:59;;;;;;;;;;;21.80;68.50;;;;;;4994477;28;796;-67
2022/09/11 04:04:24;;;;;;;;;;;21.80;68.40;;;;;;4994564;28;1282;-65
2022/09/11 04:06:50;;;;;;;;;;;21.80;68.50;;;;;;4994958;28;831;-66
2022/09/11 04:09:16;;;;;;;;;;;21.80;68.50;;;;;;4993920;28;834;-67
2022/09/11 04:11:41;;;;;;;;;;;21.80;68.40;;;;;;4994556;28;1965;-66
2022/09/11 04:14:07;;;;;;;;;;;21.80;68.50;;;;;;4994579;28;1279;-65
2022/09/11 04:16:32;;;;;;;;;;;21.80;68.50;;;;;;4980721;28;1171;-65
2022/09/11 04:18:58;;;;;;;;;;;21.80;68.50;;;;;;4993870;28;1006;-66
2022/09/11 04:21:24;;;;;;;;;;;21.80;68.50;;;;;;4993250;28;835;-67
2022/09/11 04:23:50;;;;;;;;;;;21.80;68.50;;;;;;4993732;28;1282;-66
2022/09/11 04:26:19;;;;;;;;;;;21.80;68.50;;;;;;4993412;28;1050;-65
2022/09/11 04:28:44;;;;;;;;;;;21.80;68.50;;;;;;4994014;28;1173;-66
2022/09/11 04:31:10;;;;;;;;;;;21.80;68.50;;;;;;4993689;28;1906;-66
2022/09/11 04:33:36;;;;;;;;;;;21.80;68.50;;;;;;4994068;28;1212;-65
2022/09/11 04:36:05;;;;;;;;;;;21.80;68.50;;;;;;4993013;28;867;-65
2022/09/11 04:38:30;;;;;;;;;;;21.80;68.50;;;;;;4993825;28;847;-66
2022/09/11 04:40:58;;;;;;;;;;;21.80;68.50;;;;;;4993836;28;847;-65
2022/09/11 04:43:24;;;;;;;;;;;21.80;68.50;;;;;;4994211;28;863;-65
2022/09/11 04:45:49;;;;;;;;;;;21.80;68.50;;;;;;4993483;28;1151;-65
2022/09/11 04:48:15;;;;;;;;;;;21.80;68.50;;;;;;4993781;28;793;-65
2022/09/11 04:50:40;;;;;;;;;;;21.80;68.50;;;;;;4993874;28;939;-65
2022/09/11 04:53:05;;;;;;;;;;;21.80;68.60;;;;;;4992563;28;1910;-65
2022/09/11 04:55:31;;;;;;;;;;;21.80;68.60;;;;;;4992403;28;1231;-66
2022/09/11 04:57:56;;;;;;;;;;;21.80;68.60;;;;;;4994207;28;824;-66
2022/09/11 05:00:22;;;;;;;;;;;21.80;68.60;;;;;;4993118;28;931;-66
2022/09/11 05:02:48;;;;;;;;;;;21.80;68.60;;;;;;4994149;28;801;-66
2022/09/11 05:05:13;;;;;;;;;;;21.80;68.60;;;;;;4992367;28;1292;-66
2022/09/11 05:07:38;;;;;;;;;;;21.80;68.60;;;;;;4993822;28;1085;-66
2022/09/11 05:10:04;;;;;;;;;;;21.80;68.60;;;;;;4992902;28;832;-66
2022/09/11 05:12:33;;;;;;;;;;;21.80;68.60;;;;;;4993455;28;1930;-66
2022/09/11 05:14:58;;;;;;;;;;;21.80;68.60;;;;;;4992120;28;1213;-66
2022/09/11 05:17:23;;;;;;;;;;;21.80;68.60;;;;;;4993413;28;895;-65
2022/09/11 05:19:49;;;;;;;;;;;21.80;68.60;;;;;;4992835;28;827;-65
2022/09/11 05:22:15;;;;;;;;;;;21.80;68.60;;;;;;4993557;28;883;-65
2022/09/11 05:24:40;;;;;;;;;;;21.80;68.70;;;;;;4993299;28;1234;-65
2022/09/11 05:27:06;;;;;;;;;;;21.80;68.70;;;;;;4993580;28;1125;-66
2022/09/11 05:29:31;;;;;;;;;;;21.80;68.70;;;;;;4992880;28;832;-66
2022/09/11 05:32:02;;;;;;;;;;;21.80;68.70;;;;;;4993263;28;1965;-66
2022/09/11 05:34:27;;;;;;;;;;;21.80;68.70;;;;;;4992545;28;1234;-66
2022/09/11 05:36:56;;;;;;;;;;;21.80;68.70;;;;;;4993468;28;862;-66
2022/09/11 05:39:22;;;;;;;;;;;21.80;68.70;;;;;;4993067;28;772;-66
2022/09/11 05:41:51;;;;;;;;;;;21.80;68.70;;;;;;4993235;28;1030;-66
2022/09/11 05:44:16;;;;;;;;;;;21.80;68.70;;;;;;4991577;28;1223;-65
2022/09/11 05:46:42;;;;;;;;;;;21.80;68.70;;;;;;4993454;28;852;-65
2022/09/11 05:49:07;;;;;;;;;;;21.80;68.70;;;;;;4975379;28;1432;-66
2022/09/11 05:51:36;;;;;;;;;;;21.80;68.70;;;;;;4993218;28;1902;-66
2022/09/11 05:54:01;;;;;;;;;;;21.80;68.70;;;;;;4993004;28;1201;-66
2022/09/11 05:56:27;;;;;;;;;;;21.80;68.80;;;;;;4966367;28;1848;-67
2022/09/11 05:58:53;;;;;;;;;;;21.80;68.80;;;;;;4991986;28;1046;-68
2022/09/11 06:01:19;;;;;;;;;;;21.80;68.80;;;;;;4972076;28;1920;-68
2022/09/11 06:03:48;;;;;;;;;;;21.80;68.80;;;;;;5001522;28;1292;-70
2022/09/11 06:06:13;;;;;;;;;;;21.80;68.80;;;;;;5002306;28;1175;-69
2022/09/11 06:08:41;;;;;;;;;;;21.80;68.80;;;;;;5010338;28;1046;-67
2022/09/11 06:11:06;;;;;;;;;;;21.80;68.80;;;;;;4996226;28;2241;-65
2022/09/11 06:13:33;;;;;;;;;;;21.80;68.90;;;;;;4998486;28;1092;-68
2022/09/11 06:15:58;;;;;;;;;;;21.80;68.80;;;;;;4996232;28;1267;-68
2022/09/11 06:18:24;;;;;;;;;;;21.80;68.90;;;;;;4989362;28;804;-66
2022/09/11 06:21:03;;;;;;;;;;;21.80;68.90;;;;;;4991098;28;737;-68
2022/09/11 06:23:28;;;;;;;;;;;21.80;68.90;;;;;;4991168;28;836;-68
2022/09/11 06:26:01;;;;;;;;;;;21.80;68.80;;;;;;4990348;28;1204;-69
2022/09/11 06:28:26;;;;;;;;;;;21.80;68.90;;;;;;4989233;28;1136;-68
2022/09/11 06:30:52;;;;;;;;;;;21.80;68.90;;;;;;5006124;28;816;-69
2022/09/11 06:33:21;;;;;;;;;;;21.80;68.90;;;;;;4990932;28;1956;-68
2022/09/11 06:35:56;;;;;;;;;;;21.80;68.90;;;;;;4989444;28;1320;-67
2022/09/11 06:38:22;;;;;;;;;;;21.80;68.90;;;;;;4990656;28;820;-68
2022/09/11 06:40:47;;;;;;;;;;;21.80;68.80;;;;;;4990754;28;829;-68
2022/09/11 06:43:13;;;;;;;;;;;21.80;68.90;;;;;;4990908;28;883;-67
2022/09/11 06:45:39;;;;;;;;;;;21.80;68.90;;;;;;4991045;28;1201;-67
2022/09/11 06:48:05;;;;;;;;;;;21.80;68.90;;;;;;4994538;28;868;-67
2022/09/11 06:50:34;;;;;;;;;;;21.80;68.90;;;;;;4987786;28;1588;-67
2022/09/11 06:53:00;;;;;;;;;;;21.80;68.80;;;;;;4991783;28;1918;-66
2022/09/11 06:55:26;;;;;;;;;;;21.80;68.90;;;;;;4995621;28;1146;-66
2022/09/11 06:57:52;;;;;;;;;;;21.80;68.80;;;;;;4998382;28;2220;-66
2022/09/11 07:00:18;;;;;;;;;;;21.80;68.80;;;;;;5005671;28;1982;-66
2022/09/11 07:02:44;;;;;;;;;;;21.80;68.80;;;;;;5002350;28;1066;-66
2022/09/11 07:05:09;;;;;;;;;;;21.80;68.80;;;;;;5005516;28;1251;-67
2022/09/11 07:07:35;;;;;;;;;;;21.80;68.90;;;;;;5015750;28;835;-67
2022/09/11 07:10:04;;;;;;;;;;;21.80;68.90;;;;;;5014810;28;955;-66
2022/09/11 07:12:30;;;;;;;;;;;21.80;68.90;;;;;;5015320;28;1902;-66
2022/09/11 07:14:56;;;;;;;;;;;21.80;68.80;;;;;;5012270;28;1214;-66
2022/09/11 07:17:21;;;;;;;;;;;21.80;68.90;;;;;;4995780;28;891;-66
2022/09/11 07:19:47;;;;;;;;;;;21.80;68.80;;;;;;4995071;28;839;-66
2022/09/11 07:22:14;;;;;;;;;;;21.80;69.00;;;;;;4995638;28;887;-66
2022/09/11 07:24:39;;;;;;;;;;;21.80;68.90;;;;;;4995305;28;1205;-66
2022/09/11 07:27:05;;;;;;;;;;;21.80;68.90;;;;;;4994412;28;1250;-66
2022/09/11 07:29:30;;;;;;;;;;;21.80;68.90;;;;;;4995083;28;870;-65
2022/09/11 07:31:57;;;;;;;;;;;21.80;68.90;;;;;;4995536;28;1973;-66
2022/09/11 07:34:23;;;;;;;;;;;21.80;68.90;;;;;;4994708;28;1220;-66
2022/09/11 07:36:50;;;;;;;;;;;21.80;68.90;;;;;;4995309;28;705;-66
2022/09/11 07:39:16;;;;;;;;;;;21.80;68.90;;;;;;4995086;28;883;-66
2022/09/11 07:41:41;;;;;;;;;;;21.80;68.90;;;;;;4995313;28;899;-66
2022/09/11 07:44:07;;;;;;;;;;;21.80;68.90;;;;;;4994921;28;1275;-66
2022/09/11 07:46:32;;;;;;;;;;;21.80;68.90;;;;;;4994165;28;1050;-66
2022/09/11 07:48:58;;;;;;;;;;;21.80;68.90;;;;;;4994426;28;1081;-66
2022/09/11 07:51:25;;;;;;;;;;;21.80;69.00;;;;;;4994785;28;1962;-66
2022/09/11 07:53:50;;;;;;;;;;;21.80;69.00;;;;;;4994978;28;1202;-66
2022/09/11 07:56:17;;;;;;;;;;;21.80;69.00;;;;;;4993869;28;985;-66
2022/09/11 07:58:42;;;;;;;;;;;21.80;68.90;;;;;;4992370;28;883;-66
2022/09/11 08:01:10;;;;;;;;;;;21.80;69.00;;;;;;4993651;28;784;-66
2022/09/11 08:03:35;;;;;;;;;;;21.80;68.90;;;;;;4994287;28;1070;-66
2022/09/11 08:06:01;;;;;;;;;;;21.80;68.90;;;;;;4993273;28;1210;-66
2022/09/11 08:08:28;;;;;;;;;;;21.80;68.90;;;;;;4993328;28;882;-65
2022/09/11 08:10:56;;;;;;;;;;;21.80;68.90;;;;;;4993398;28;943;-65
2022/09/11 08:13:22;;;;;;;;;;;21.80;68.90;;;;;;4993402;28;1871;-66
2022/09/11 08:15:48;;;;;;;;;;;21.80;68.90;;;;;;4994442;28;1270;-66
2022/09/11 08:18:13;;;;;;;;;;;21.80;68.90;;;;;;5009263;28;1089;-66
2022/09/11 08:20:39;;;;;;;;;;;21.80;69.00;;;;;;4993880;28;1014;-66
2022/09/11 08:23:05;;;;;;;;;;;21.80;69.00;;;;;;4994785;28;815;-66
2022/09/11 08:25:30;;;;;;;;;;;21.80;69.00;;;;;;4992981;28;1391;-67
2022/09/11 08:27:55;;;;;;;;;;;21.80;68.90;;;;;;4994512;28;1160;-67
2022/09/11 08:30:21;;;;;;;;;;;21.80;68.90;;;;;;4993645;28;692;-67
2022/09/11 08:32:46;;;;;;;;;;;21.70;68.90;;;;;;4994317;28;1895;-67
2022/09/11 08:35:12;;;;;;;;;;;21.80;69.00;;;;;;4993516;28;1302;-67
2022/09/11 08:37:38;;;;;;;;;;;21.80;69.00;;;;;;4993117;28;1010;-67
2022/09/11 08:40:06;;;;;;;;;;;21.80;69.00;;;;;;4993646;28;859;-67
2022/09/11 08:42:32;;;;;;;;;;;21.80;68.90;;;;;;4994219;28;926;-67
2022/09/11 08:44:58;;;;;;;;;;;21.80;69.00;;;;;;4993756;28;1198;-67
2022/09/11 08:47:24;;;;;;;;;;;21.80;69.00;;;;;;4992856;28;895;-67
2022/09/11 08:49:56;;;;;;;;;;;21.80;69.00;;;;;;4992429;28;883;-67
2022/09/11 08:52:21;;;;;;;;;;;21.80;69.00;;;;;;4992787;28;3004;-67
2022/09/11 08:54:46;;;;;;;;;;;21.80;69.00;;;;;;4984773;28;2109;-66
2022/09/11 08:57:30;;;;;;;;;;;21.80;69.00;;;;;;5007803;28;1334;-66
2022/09/11 08:59:56;;;;;;;;;;;21.80;69.00;;;;;;5009745;28;1610;-66
2022/09/11 09:02:24;;;;;;;;;;;21.80;69.00;;;;;;4994890;28;1949;-67
2022/09/11 09:05:00;;;;;;;;;;;21.80;69.00;;;;;;4999297;28;1289;-67
2022/09/11 09:07:31;;;;;;;;;;;21.80;69.00;;;;;;4991281;28;1306;-67
2022/09/11 09:09:56;;;;;;;;;;;21.80;69.00;;;;;;4992674;28;1269;-67
2022/09/11 09:12:40;;;;;;;;;;;21.80;69.00;;;;;;4992722;28;1957;-67
2022/09/11 09:15:12;;;;;;;;;;;21.80;69.10;;;;;;4993032;28;1288;-67
2022/09/11 09:17:40;;;;;;;;;;;21.80;69.00;;;;;;4993619;28;1238;-67
2022/09/11 09:20:12;;;;;;;;;;;21.80;69.00;;;;;;4983138;28;1281;-66
2022/09/11 09:22:46;;;;;;;;;;;21.80;69.00;;;;;;4999764;28;1316;-66
2022/09/11 09:25:13;;;;;;;;;;;21.80;69.00;;;;;;4990633;28;1276;-68
2022/09/11 09:27:43;;;;;;;;;;;21.80;69.10;;;;;;4991922;28;1300;-67
2022/09/11 09:30:13;;;;;;;;;;;21.80;69.10;;;;;;4988464;28;1352;-66
2022/09/11 09:32:40;;;;;;;;;;;21.80;69.00;;;;;;4992935;28;1968;-66
2022/09/11 09:35:10;;;;;;;;;;;21.80;69.00;;;;;;5016496;22;3727;-63
2022/09/11 09:37:36;;;;;;;;;;;21.80;69.30;;;;;;4991882;28;957;-62
2022/09/11 09:40:04;;;;;;;;;;;21.80;69.00;;;;;;4991428;28;1136;-62
2022/09/11 09:42:29;;;;;;;;;;;21.80;69.00;;;;;;4991986;28;820;-61
2022/09/11 09:44:55;;;;;;;;;;;21.80;69.00;;;;;;4993141;28;1299;-62
2022/09/11 09:47:20;;;;;;;;;;;21.80;69.00;;;;;;4993213;28;1163;-60
2022/09/11 09:49:46;;;;;;;;;;;21.80;69.00;;;;;;4991876;28;844;-64
2022/09/11 09:52:30;;;;;;;;;;;21.80;69.00;;;;;;4992980;28;1896;-63
2022/09/11 09:54:58;;;;;;;;;;;21.80;69.00;;;;;;4991958;28;1266;-62
2022/09/11 09:57:25;;;;;;;;;;;21.80;69.10;;;;;;4992179;28;851;-64
2022/09/11 10:00:05;;;;;;;;;;;21.80;69.00;;;;;;4991391;28;884;-64
2022/09/11 10:02:44;;;;;;;;;;;21.80;69.10;;;;;;4991647;28;815;-63
2022/09/11 10:05:38;;;;;;;;;;;21.80;69.10;;;;;;4992785;28;1231;-64
2022/09/11 10:08:04;;;;;;;;;;;21.80;69.10;;;;;;4984366;28;1419;-65
2022/09/11 10:10:35;;;;;;;;;;;21.80;69.10;;;;;;4991872;28;1034;-65
2022/09/11 10:13:16;;;;;;;;;;;21.80;69.10;;;;;;4992538;28;1902;-65
2022/09/11 10:15:42;;;;;;;;;;;21.80;69.10;;;;;;4991793;28;1243;-65
2022/09/11 10:18:23;;;;;;;;;;;21.80;69.20;;;;;;4993107;28;930;-64
2022/09/11 10:20:48;;;;;;;;;;;21.80;69.10;;;;;;4992565;28;2247;-65
2022/09/11 10:23:22;;;;;;;;;;;21.80;69.10;;;;;;5001163;28;1292;-65
2022/09/11 10:25:48;;;;;;;;;;;21.80;69.20;;;;;;5016228;28;1401;-64
2022/09/11 10:28:16;;;;;;;;;;;21.80;69.20;;;;;;5010383;28;1005;-64
2022/09/11 10:30:46;;;;;;;;;;;21.80;69.20;;;;;;5014628;28;1187;-64
2022/09/11 10:33:20;;;;;;;;;;;21.80;69.20;;;;;;4997617;28;1966;-65
2022/09/11 10:35:55;;;;;;;;;;;21.80;69.20;;;;;;5002031;28;1205;-65
2022/09/11 10:38:34;;;;;;;;;;;21.80;69.20;;;;;;5002803;28;1065;-64
2022/09/11 10:41:08;;;;;;;;;;;21.80;69.20;;;;;;4996375;28;1064;-65
2022/09/11 10:44:00;;;;;;;;;;;21.80;69.20;;;;;;4995562;28;1139;-65
2022/09/11 10:46:44;;;;;;;;;;;21.80;69.20;;;;;;4996451;28;1269;-65
2022/09/11 10:49:10;;;;;;;;;;;21.80;69.20;;;;;;4996136;28;895;-65
2022/09/11 10:51:36;;;;;;;;;;;21.80;69.20;;;;;;4996142;28;1906;-64
2022/09/11 10:54:13;;;;;;;;;;;21.80;69.10;;;;;;4995030;28;850;-64
2022/09/11 10:56:53;;;;;;;;;;;21.80;69.20;;;;;;4994325;28;2380;-63
2022/09/11 10:59:21;;;;;;;;;;;21.80;69.20;;;;;;5010811;28;1142;-62
2022/09/11 11:01:46;;;;;;;;;;;21.80;69.20;;;;;;4994603;28;1329;-64
2022/09/11 11:04:12;;;;;;;;;;;21.80;69.20;;;;;;4996280;28;862;-63
2022/09/11 11:06:41;;;;;;;;;;;21.70;69.20;;;;;;4996082;28;1182;-64
2022/09/11 11:09:06;;;;;;;;;;;21.80;69.20;;;;;;4995177;28;804;-63
2022/09/11 11:11:34;;;;;;;;;;;21.70;69.20;;;;;;4995689;28;1946;-63
2022/09/11 11:14:10;;;;;;;;;;;21.80;69.20;;;;;;4994252;28;2176;-64
2022/09/11 11:16:48;;;;;;;;;;;21.80;69.10;;;;;;5011132;28;1214;-64
2022/09/11 11:19:19;;;;;;;;;;;21.80;69.20;;;;;;4994025;28;1219;-63
2022/09/11 11:22:07;;;;;;;;;;;21.80;69.20;;;;;;4995293;28;1059;-64
2022/09/11 11:24:37;;;;;;;;;;;21.80;69.10;;;;;;4993441;28;1838;-64
2022/09/11 11:27:08;;;;;;;;;;;21.70;69.10;;;;;;4995169;28;1256;-62
2022/09/11 11:29:53;;;;;;;;;;;21.80;69.10;;;;;;4992660;28;1225;-64
2022/09/11 11:32:35;;;;;;;;;;;21.80;69.10;;;;;;4993868;28;1894;-65
2022/09/11 11:35:19;;;;;;;;;;;21.80;69.10;;;;;;4994969;28;1406;-65
2022/09/11 11:37:45;;;;;;;;;;;21.80;69.50;;;;;;4992710;28;2227;-65
2022/09/11 11:40:13;;;;;;;;;;;21.80;69.70;;;;;;4994186;28;1268;-65
2022/09/11 11:42:43;;;;;;;;;;;21.80;69.80;;;;;;4994828;28;1185;-65
2022/09/11 11:45:21;;;;;;;;;;;21.80;69.80;;;;;;4993789;28;1283;-65
2022/09/11 11:47:46;;;;;;;;;;;21.90;70.00;;;;;;4992998;28;1182;-66
2022/09/11 11:50:11;;;;;;;;;;;21.90;70.10;;;;;;4993472;28;1266;-65
2022/09/11 11:52:42;;;;;;;;;;;22.00;70.30;;;;;;4994855;28;1945;-65
2022/09/11 11:55:15;;;;;;;;;;;22.00;70.20;;;;;;4994819;28;1364;-63
2022/09/11 11:57:42;;;;;;;;;;;22.00;69.90;;;;;;4995126;28;1688;-64
2022/09/11 12:00:09;;;;;;;;;;;22.00;69.90;;;;;;4994426;28;1217;-64
2022/09/11 12:02:35;;;;;;;;;;;22.00;70.30;;;;;;5009584;28;1169;-63
2022/09/11 12:05:09;;;;;;;;;;;22.00;70.70;;;;;;4994283;28;1383;-63
2022/09/11 12:07:38;;;;;;;;;;;22.10;70.50;;;;;;4992590;28;1091;-63
2022/09/11 12:10:04;;;;;;;;;;;22.10;70.60;;;;;;5009016;28;1229;-63
2022/09/11 12:12:33;;;;;;;;;;;22.10;71.00;;;;;;4994501;28;1890;-64
2022/09/11 12:15:01;;;;;;;;;;;22.10;71.00;;;;;;4994332;28;1227;-65
2022/09/11 12:17:27;;;;;;;;;;;22.10;71.50;;;;;;4994362;28;987;-64
2022/09/11 12:20:08;;;;;;;;;;;22.20;71.70;;;;;;4992712;28;737;-63
2022/09/11 12:22:37;;;;;;;;;;;22.20;72.20;;;;;;4994524;28;800;-63
2022/09/11 12:25:03;;;;;;;;;;;22.20;73.00;;;;;;4993049;28;1318;-64
2022/09/11 12:27:35;;;;;;;;;;;22.20;72.60;;;;;;4993185;28;1338;-64
2022/09/11 12:30:15;;;;;;;;;;;22.30;72.20;;;;;;4993776;28;840;-64
2022/09/11 12:32:44;;;;;;;;;;;22.30;72.70;;;;;;4994090;28;1902;-64
2022/09/11 12:35:18;;;;;;;;;;;22.30;73.80;;;;;;4993169;28;1281;-65
2022/09/11 12:37:46;;;;;;;;;;;22.40;74.40;;;;;;4994487;28;839;-66
2022/09/11 12:40:17;;;;;;;;;;;22.40;72.10;;;;;;4994218;28;819;-64
2022/09/11 12:42:53;;;;;;;;;;;22.40;72.00;;;;;;4994173;28;831;-63
2022/09/11 12:45:29;;;;;;;;;;;22.50;73.00;;;;;;4993907;28;1240;-65
2022/09/11 12:47:54;;;;;;;;;;;22.50;72.50;;;;;;4993087;28;941;-65
2022/09/11 12:50:20;;;;;;;;;;;22.50;72.10;;;;;;4992362;28;1535;-63
2022/09/11 12:52:46;;;;;;;;;;;22.60;72.20;;;;;;4992464;28;1952;-65
2022/09/11 12:55:30;;;;;;;;;;;22.60;72.40;;;;;;4993811;28;1193;-64
2022/09/11 12:58:01;;;;;;;;;;;22.70;73.30;;;;;;4994263;28;846;-65
2022/09/11 13:00:33;;;;;;;;;;;22.80;73.80;;;;;;4992328;28;796;-67
2022/09/11 13:02:58;;;;;;;;;;;22.90;72.50;;;;;;4994131;28;898;-66
2022/09/11 13:05:36;;;;;;;;;;;22.90;71.60;;;;;;4992486;28;1283;-67
2022/09/11 13:08:03;;;;;;;;;;;23.00;71.10;;;;;;4992607;28;835;-65
2022/09/11 13:10:32;;;;;;;;;;;23.00;71.10;;;;;;4992148;28;1188;-68
2022/09/11 13:12:58;;;;;;;;;;;23.00;71.00;;;;;;4993350;28;1962;-67
2022/09/11 13:15:30;;;;;;;;;;;23.10;69.70;;;;;;4992420;28;1300;-67
2022/09/11 13:17:56;;;;;;;;;;;23.10;69.60;;;;;;4993606;28;801;-66
2022/09/11 13:20:22;;;;;;;;;;;23.10;70.30;;;;;;4991854;28;761;-68
2022/09/11 13:22:48;;;;;;;;;;;23.10;70.30;;;;;;4992050;28;903;-67
2022/09/11 13:25:14;;;;;;;;;;;23.10;70.00;;;;;;4988899;28;1303;-67
2022/09/11 13:27:40;;;;;;;;;;;23.10;68.30;;;;;;4993142;28;1148;-66
2022/09/11 13:30:06;;;;;;;;;;;23.20;68.40;;;;;;4993121;28;1080;-67
2022/09/11 13:32:31;;;;;;;;;;;23.20;68.30;;;;;;4992993;28;1898;-67
2022/09/11 13:35:00;;;;;;;;;;;23.20;67.40;;;;;;5006239;28;1273;-66
2022/09/11 13:37:36;;;;;;;;;;;23.20;66.30;;;;;;5005286;28;1023;-67
2022/09/11 13:40:03;;;;;;;;;;;23.20;66.20;;;;;;5010815;28;927;-67
2022/09/11 13:42:28;;;;;;;;;;;23.10;66.60;;;;;;5012675;28;859;-65
2022/09/11 13:44:55;;;;;;;;;;;23.00;67.00;;;;;;5012401;28;1207;-65
2022/09/11 13:47:21;;;;;;;;;;;23.00;69.00;;;;;;5011777;28;1013;-65
2022/09/11 13:49:47;;;;;;;;;;;23.00;69.70;;;;;;5011856;28;1184;-65
2022/09/11 13:52:12;;;;;;;;;;;23.00;69.20;;;;;;5010784;28;1906;-65
2022/09/11 13:54:45;;;;;;;;;;;23.00;68.80;;;;;;4992410;28;1244;-65
2022/09/11 13:57:14;;;;;;;;;;;23.00;69.60;;;;;;4995922;28;966;-64
2022/09/11 13:59:50;;;;;;;;;;;22.90;69.40;;;;;;4996668;28;831;-64
2022/09/11 14:02:39;;;;;;;;;;;22.90;68.80;;;;;;4997165;28;900;-64
2022/09/11 14:05:14;;;;;;;;;;;22.90;69.40;;;;;;4997518;28;1202;-64
2022/09/11 14:07:49;;;;;;;;;;;22.80;68.90;;;;;;4996892;28;852;-64
2022/09/11 14:10:25;;;;;;;;;;;22.90;69.30;;;;;;4995151;28;862;-64
2022/09/11 14:12:53;;;;;;;;;;;22.80;69.00;;;;;;4996958;28;1895;-63
2022/09/11 14:15:19;;;;;;;;;;;22.80;69.70;;;;;;4997151;28;1223;-65
2022/09/11 14:17:45;;;;;;;;;;;22.80;69.60;;;;;;4997061;28;848;-65
2022/09/11 14:20:15;;;;;;;;;;;22.80;70.00;;;;;;4995089;28;943;-65
2022/09/11 14:22:41;;;;;;;;;;;22.70;69.70;;;;;;4995264;28;904;-65
2022/09/11 14:25:18;;;;;;;;;;;22.70;69.90;;;;;;4995067;28;1249;-65
2022/09/11 14:27:44;;;;;;;;;;;22.70;69.60;;;;;;4995423;28;1125;-65
2022/09/11 14:30:24;;;;;;;;;;;22.70;68.60;;;;;;4996027;28;832;-65
2022/09/11 14:33:04;;;;;;;;;;;22.70;67.70;;;;;;4996286;28;1960;-65
2022/09/11 14:35:30;;;;;;;;;;;22.60;67.70;;;;;;4996480;28;1250;-64
2022/09/11 14:37:56;;;;;;;;;;;22.60;67.60;;;;;;4996409;28;844;-64
2022/09/11 14:40:21;;;;;;;;;;;22.60;67.60;;;;;;4995184;28;1027;-64
2022/09/11 14:42:47;;;;;;;;;;;22.50;67.50;;;;;;4996214;28;1019;-65